Weather

Current Metar report

KALM 220355Z AUTO 07003KT 8SM OVC025 05/05 A3009 RMK AO2


Metar history is on Flightaware.

KALM AWOS Info
Phone Number: 575-439-4112
Freq: 127.825 MHz

KALM Weather Links

Soaring Forecasts Links